createdAt,value
2017-12-02T00:02:25.048Z,12.50
2017-12-02T00:04:52.549Z,12.77
2017-12-02T00:07:20.093Z,14.03
2017-12-02T00:09:47.597Z,11.67
2017-12-02T00:12:15.064Z,13.30
2017-12-02T00:14:43.483Z,14.17
2017-12-02T00:17:11.021Z,14.03
2017-12-02T00:19:38.598Z,14.97
2017-12-02T00:22:06.087Z,15.50
2017-12-02T00:27:06.637Z,15.00
2017-12-02T00:29:34.255Z,13.57
2017-12-02T00:32:01.755Z,12.13
2017-12-02T00:34:29.276Z,13.67
2017-12-02T00:36:56.778Z,13.40
2017-12-02T00:39:24.257Z,16.40
2017-12-02T00:41:51.742Z,13.80
2017-12-02T00:44:20.001Z,14.83
2017-12-02T00:46:47.548Z,15.30
2017-12-02T00:49:15.034Z,13.60
2017-12-02T00:51:43.282Z,14.73
2017-12-02T00:54:10.782Z,13.80
2017-12-02T00:56:38.455Z,14.20
2017-12-02T00:59:05.954Z,15.43
2017-12-02T01:01:33.548Z,13.97
2017-12-02T01:04:01.042Z,13.07
2017-12-02T01:06:28.596Z,12.60
2017-12-02T01:08:56.069Z,12.47
2017-12-02T01:11:23.584Z,15.57
2017-12-02T01:13:51.836Z,16.33
2017-12-02T01:16:19.310Z,14.40
2017-12-02T01:18:46.812Z,13.80
2017-12-02T01:21:14.307Z,12.20
2017-12-02T01:23:41.832Z,14.63
2017-12-02T01:26:09.323Z,13.53
2017-12-02T01:28:38.320Z,13.73
2017-12-02T01:31:05.876Z,13.30
2017-12-02T01:33:33.377Z,12.55
2017-12-02T01:36:00.892Z,14.77
2017-12-02T01:38:28.417Z,12.63
2017-12-02T01:40:55.976Z,12.88
2017-12-02T01:43:23.484Z,13.60
2017-12-02T01:45:51.752Z,13.77
2017-12-02T01:48:19.449Z,13.00
2017-12-02T01:50:47.029Z,12.47
2017-12-02T01:53:14.528Z,14.30
2017-12-02T01:55:42.185Z,14.20
2017-12-02T01:58:09.685Z,13.47
2017-12-02T02:00:37.166Z,14.07
2017-12-02T02:03:04.673Z,12.40
2017-12-02T02:05:32.216Z,13.23
2017-12-02T02:07:59.691Z,14.37
2017-12-02T02:10:27.387Z,12.60
2017-12-02T02:12:55.644Z,13.27
2017-12-02T02:15:23.907Z,11.93
2017-12-02T02:17:51.512Z,13.70
2017-12-02T02:20:19.065Z,12.73
2017-12-02T02:22:46.546Z,13.27
2017-12-02T02:25:14.156Z,13.37
2017-12-02T02:27:41.654Z,14.53
2017-12-02T02:30:09.322Z,12.70
2017-12-02T02:32:36.834Z,13.32
2017-12-02T02:35:04.395Z,12.47
2017-12-02T02:37:32.813Z,13.00
2017-12-02T02:40:00.384Z,12.27
2017-12-02T02:42:27.877Z,13.03
2017-12-02T02:44:55.390Z,12.90
2017-12-02T02:47:22.869Z,14.60
2017-12-02T02:49:50.381Z,12.67
2017-12-02T02:52:17.950Z,12.83
2017-12-02T02:54:45.440Z,12.37
2017-12-02T02:57:12.924Z,14.20
2017-12-02T02:59:40.533Z,13.13
2017-12-02T03:02:08.045Z,12.73
2017-12-02T03:04:35.561Z,14.13
2017-12-02T03:07:03.077Z,12.63
2017-12-02T03:09:30.599Z,13.13
2017-12-02T03:11:58.180Z,13.30
2017-12-02T03:14:25.679Z,13.70
2017-12-02T03:16:53.154Z,13.53
2017-12-02T03:19:20.799Z,13.43
2017-12-02T03:21:49.059Z,13.87
2017-12-02T03:24:16.672Z,12.63
2017-12-02T03:26:44.165Z,15.33
2017-12-02T03:29:11.721Z,13.47
2017-12-02T03:31:39.784Z,13.47
2017-12-02T03:34:07.285Z,14.20
2017-12-02T03:36:34.859Z,12.77
2017-12-02T03:39:02.536Z,14.13
2017-12-02T03:41:30.048Z,12.40
2017-12-02T03:43:57.592Z,14.50
2017-12-02T03:46:25.065Z,13.63
2017-12-02T03:48:52.667Z,11.87
2017-12-02T03:51:20.305Z,13.03
2017-12-02T03:53:48.896Z,16.17
2017-12-02T03:56:16.375Z,13.37
2017-12-02T03:58:44.812Z,13.73
2017-12-02T04:01:12.311Z,13.40
2017-12-02T04:03:39.792Z,13.00
2017-12-02T04:06:07.288Z,12.77
2017-12-02T04:08:35.477Z,13.45
2017-12-02T04:11:03.740Z,12.03
2017-12-02T04:13:31.256Z,12.70
2017-12-02T04:15:58.774Z,12.70
2017-12-02T04:18:27.023Z,12.70
2017-12-02T04:20:55.268Z,11.90
2017-12-02T04:23:23.444Z,10.97
2017-12-02T04:25:50.932Z,12.83
2017-12-02T04:28:18.642Z,12.53
2017-12-02T04:30:46.124Z,12.07
2017-12-02T04:33:13.750Z,13.10
2017-12-02T04:35:42.049Z,13.13
2017-12-02T04:38:09.525Z,13.77
2017-12-02T04:40:37.008Z,11.87
2017-12-02T04:43:04.612Z,12.53
2017-12-02T04:45:32.988Z,12.23
2017-12-02T04:48:01.367Z,11.87
2017-12-02T04:50:29.607Z,12.83
2017-12-02T04:52:57.311Z,12.83
2017-12-02T04:55:25.002Z,12.40
2017-12-02T04:57:52.486Z,12.53
2017-12-02T05:00:20.209Z,12.50
2017-12-02T05:02:47.808Z,13.20
2017-12-02T05:05:15.525Z,13.20
2017-12-02T05:07:43.103Z,13.33
2017-12-02T05:10:10.737Z,12.10
2017-12-02T05:12:38.408Z,13.13
2017-12-02T05:15:06.053Z,12.50
2017-12-02T05:17:33.528Z,11.93
2017-12-02T05:20:01.015Z,11.93
2017-12-02T05:22:28.517Z,14.80
2017-12-02T05:24:56.078Z,12.77
2017-12-02T05:27:25.313Z,13.87
2017-12-02T05:29:52.794Z,13.70
2017-12-02T05:32:20.299Z,12.33
2017-12-02T05:34:47.816Z,14.17
2017-12-02T05:37:15.294Z,12.37
2017-12-02T05:39:42.788Z,13.37
2017-12-02T05:42:11.041Z,13.17
2017-12-02T05:44:38.533Z,12.93
2017-12-02T05:47:06.773Z,14.37
2017-12-02T05:49:34.554Z,10.50
2017-12-02T05:52:02.062Z,12.53
2017-12-02T05:54:29.560Z,13.13
2017-12-02T05:56:57.812Z,12.40
2017-12-02T05:59:25.431Z,16.03
2017-12-02T06:01:53.723Z,14.13
2017-12-02T06:04:21.197Z,13.70
2017-12-02T06:06:48.816Z,13.50
2017-12-02T06:09:16.474Z,12.70
2017-12-02T06:11:44.741Z,13.60
2017-12-02T06:14:12.241Z,13.57
2017-12-02T06:16:39.873Z,12.43
2017-12-02T06:19:08.132Z,12.20
2017-12-02T06:21:35.601Z,16.60
2017-12-02T06:24:03.862Z,14.97
2017-12-02T06:26:31.343Z,14.57
2017-12-02T06:28:59.757Z,13.53
2017-12-02T06:31:27.392Z,12.90
2017-12-02T06:33:54.884Z,12.73
2017-12-02T06:36:22.477Z,13.27
2017-12-02T06:38:50.009Z,12.80
2017-12-02T06:41:17.497Z,12.53
2017-12-02T06:43:44.980Z,13.70
2017-12-02T06:46:12.475Z,12.07
2017-12-02T06:48:40.090Z,12.60
2017-12-02T06:51:07.565Z,11.33
2017-12-02T06:53:35.864Z,11.73
2017-12-02T06:56:03.400Z,9.73
2017-12-02T06:58:32.472Z,10.33
2017-12-02T07:00:59.960Z,10.17
2017-12-02T07:03:27.442Z,10.67
2017-12-02T07:05:54.925Z,9.83
2017-12-02T07:08:22.457Z,9.73
2017-12-02T07:10:50.376Z,11.90
2017-12-02T07:13:17.917Z,11.40
2017-12-02T07:15:45.569Z,13.00
2017-12-02T07:18:13.221Z,12.20
2017-12-02T07:20:40.716Z,11.83
2017-12-02T07:23:08.276Z,12.10
2017-12-02T07:25:35.765Z,13.43
2017-12-02T07:28:03.272Z,13.40
2017-12-02T07:30:30.751Z,13.50
2017-12-02T07:32:58.257Z,13.50
2017-12-02T07:35:25.815Z,13.50
2017-12-02T07:37:53.389Z,12.47
2017-12-02T07:40:20.916Z,11.90
2017-12-02T07:42:48.426Z,12.47
2017-12-02T07:45:15.924Z,13.20
2017-12-02T07:47:43.397Z,14.60
2017-12-02T07:50:10.895Z,13.87
2017-12-02T07:52:38.409Z,13.30
2017-12-02T07:55:06.812Z,14.43
2017-12-02T07:57:34.317Z,12.30
2017-12-02T08:00:01.800Z,12.80
2017-12-02T08:02:30.414Z,11.80
2017-12-02T08:05:02.067Z,12.87
2017-12-02T08:10:02.408Z,12.13
2017-12-02T08:12:29.911Z,12.70
2017-12-02T08:14:58.224Z,12.88
2017-12-02T08:17:25.741Z,12.57
2017-12-02T08:19:53.267Z,11.97
2017-12-02T08:22:20.784Z,12.00
2017-12-02T08:24:48.392Z,15.47
2017-12-02T08:27:16.001Z,13.77
2017-12-02T08:29:44.160Z,12.85
2017-12-02T08:32:11.849Z,14.03
2017-12-02T08:34:40.157Z,14.13
2017-12-02T08:37:07.651Z,14.00
2017-12-02T08:39:35.206Z,14.33
2017-12-02T08:42:02.698Z,14.53
2017-12-02T08:44:30.206Z,14.30
2017-12-02T08:46:58.579Z,13.00
2017-12-02T08:49:26.125Z,13.13
2017-12-02T08:51:53.860Z,13.97
2017-12-02T08:54:21.354Z,13.57
2017-12-02T08:56:48.880Z,12.93
2017-12-02T08:59:17.328Z,12.50
2017-12-02T09:01:44.844Z,12.52
2017-12-02T09:04:12.340Z,11.30
2017-12-02T09:06:40.179Z,13.02
2017-12-02T09:09:07.684Z,13.07
2017-12-02T09:11:35.188Z,11.43
2017-12-02T09:14:02.687Z,13.75
2017-12-02T09:16:30.306Z,14.65
2017-12-02T09:18:57.948Z,12.25
2017-12-02T09:21:25.442Z,12.20
2017-12-02T09:23:52.957Z,12.30
2017-12-02T09:26:22.099Z,13.37
2017-12-02T09:28:49.732Z,13.25
2017-12-02T09:31:17.246Z,12.93
2017-12-02T09:33:44.728Z,12.07
2017-12-02T09:36:12.306Z,12.65
2017-12-02T09:38:40.559Z,12.07
2017-12-02T09:41:08.156Z,13.93
2017-12-02T09:43:35.665Z,13.90
2017-12-02T09:46:03.157Z,12.93
2017-12-02T09:51:03.584Z,13.27
2017-12-02T09:53:32.688Z,12.93
2017-12-02T09:58:33.103Z,14.73
2017-12-02T10:01:00.582Z,13.83
2017-12-02T10:03:28.095Z,14.20
2017-12-02T10:05:55.657Z,12.82
2017-12-02T10:08:23.153Z,12.90
2017-12-02T10:10:50.656Z,12.80
2017-12-02T10:13:18.161Z,12.82
2017-12-02T10:15:45.660Z,13.60
2017-12-02T10:18:13.936Z,12.27
2017-12-02T10:20:42.213Z,12.30
2017-12-02T10:23:09.710Z,11.67
2017-12-02T10:25:37.228Z,11.20
2017-12-02T10:28:05.498Z,12.90
2017-12-02T10:30:32.996Z,11.40
2017-12-02T10:33:00.520Z,13.25
2017-12-02T10:35:28.005Z,11.20
2017-12-02T10:37:55.505Z,13.10
2017-12-02T10:40:23.008Z,12.60
2017-12-02T10:42:50.532Z,11.73
2017-12-02T10:45:18.042Z,12.73
2017-12-02T10:47:45.611Z,11.33
2017-12-02T10:50:13.117Z,11.20
2017-12-02T10:52:40.615Z,11.57
2017-12-02T10:55:08.876Z,12.50
2017-12-02T10:57:36.556Z,11.23
2017-12-02T11:00:04.043Z,10.20
2017-12-02T11:02:31.542Z,11.10
2017-12-02T11:04:59.056Z,10.63
2017-12-02T11:07:26.573Z,7.13
2017-12-02T11:09:54.467Z,6.87
2017-12-02T11:12:21.934Z,6.73
2017-12-02T11:14:49.421Z,8.87
2017-12-02T11:17:16.903Z,7.23
2017-12-02T11:19:44.469Z,6.60
2017-12-02T11:22:12.797Z,6.93
2017-12-02T11:24:40.302Z,5.90
2017-12-02T11:27:08.008Z,5.27
2017-12-02T11:29:35.773Z,7.90
2017-12-02T11:32:04.023Z,8.90
2017-12-02T11:34:32.266Z,8.17
2017-12-02T11:36:59.784Z,7.00
2017-12-02T11:39:27.401Z,7.67
2017-12-02T11:41:55.672Z,7.93
2017-12-02T11:44:23.364Z,9.00
2017-12-02T11:46:50.884Z,9.87
2017-12-02T11:49:18.511Z,8.67
2017-12-02T11:51:45.979Z,9.43
2017-12-02T11:54:13.627Z,8.40
2017-12-02T11:56:41.184Z,8.17
2017-12-02T11:59:08.667Z,5.20
2017-12-02T12:01:36.148Z,6.50
2017-12-02T12:04:03.654Z,7.30
2017-12-02T12:06:31.171Z,6.07
2017-12-02T12:08:58.672Z,6.60
2017-12-02T12:11:26.171Z,5.90
2017-12-02T12:13:53.647Z,4.93
2017-12-02T12:16:21.901Z,5.17
2017-12-02T12:18:49.489Z,5.90
2017-12-02T12:21:16.970Z,4.90
2017-12-02T12:23:44.525Z,5.43
2017-12-02T12:26:11.996Z,6.80
2017-12-02T12:28:39.556Z,2.60
2017-12-02T12:31:07.033Z,3.50
2017-12-02T12:33:34.545Z,4.77
2017-12-02T12:36:02.050Z,4.63
2017-12-02T12:38:29.556Z,4.90
2017-12-02T12:40:57.048Z,5.40
2017-12-02T12:43:24.523Z,4.60
2017-12-02T12:45:52.013Z,3.20
2017-12-02T12:48:19.520Z,2.87
2017-12-02T12:50:46.986Z,4.83
2017-12-02T12:53:14.622Z,6.33
2017-12-02T12:55:42.100Z,4.50
2017-12-02T12:58:09.601Z,5.70
2017-12-02T13:00:37.068Z,4.23
2017-12-02T13:03:04.587Z,5.00
2017-12-02T13:05:32.117Z,4.00
2017-12-02T13:08:00.431Z,3.87
2017-12-02T13:10:27.983Z,5.00
2017-12-02T13:12:55.503Z,3.93
2017-12-02T13:15:23.112Z,4.33
2017-12-02T13:17:50.601Z,5.87
2017-12-02T13:20:18.144Z,6.43
2017-12-02T13:22:45.636Z,7.00
2017-12-02T13:25:13.113Z,6.97
2017-12-02T13:27:40.632Z,6.20
2017-12-02T13:30:08.116Z,5.97
2017-12-02T13:32:36.516Z,6.07
2017-12-02T13:35:04.812Z,6.63
2017-12-02T13:37:32.349Z,6.90
2017-12-02T13:40:00.616Z,8.90
2017-12-02T13:42:28.112Z,6.83
2017-12-02T13:44:55.689Z,9.07
2017-12-02T13:47:23.190Z,9.07
2017-12-02T13:49:51.468Z,9.33
2017-12-02T13:52:19.784Z,9.27
2017-12-02T13:54:47.283Z,8.07
2017-12-02T13:57:14.772Z,10.40
2017-12-02T13:59:43.021Z,9.00
2017-12-02T14:02:10.532Z,10.00
2017-12-02T14:04:38.043Z,7.40
2017-12-02T14:07:07.056Z,9.83
2017-12-02T14:09:35.332Z,8.53
2017-12-02T14:12:02.843Z,13.80
2017-12-02T14:14:30.393Z,11.30
2017-12-02T14:16:57.945Z,10.50
2017-12-02T14:19:25.485Z,12.03
2017-12-02T14:21:53.719Z,9.33
2017-12-02T14:24:21.236Z,9.20
2017-12-02T14:26:48.756Z,10.97
2017-12-02T14:29:16.465Z,23.30
2017-12-02T14:31:43.963Z,13.17
2017-12-02T14:34:11.657Z,8.07
2017-12-02T14:36:39.143Z,13.73
2017-12-02T14:39:06.633Z,8.47
2017-12-02T14:41:34.123Z,8.10
2017-12-02T14:44:01.612Z,6.97
2017-12-02T14:46:29.117Z,7.63
2017-12-02T14:48:56.665Z,6.43
2017-12-02T14:51:24.168Z,7.20
2017-12-02T14:53:52.424Z,6.97
2017-12-02T14:56:19.930Z,10.90
2017-12-02T14:58:47.460Z,8.50
2017-12-02T15:01:15.732Z,8.47
2017-12-02T15:03:44.004Z,8.00
2017-12-02T15:06:11.484Z,8.60
2017-12-02T15:08:38.992Z,9.10
2017-12-02T15:11:06.512Z,8.60
2017-12-02T15:13:33.992Z,7.50
2017-12-02T15:16:01.805Z,8.53
2017-12-02T15:18:29.317Z,8.87
2017-12-02T15:20:56.834Z,9.57
2017-12-02T15:23:25.135Z,8.20
2017-12-02T15:25:52.607Z,9.93
2017-12-02T15:28:20.122Z,11.37
2017-12-02T15:30:48.403Z,9.23
2017-12-02T15:33:16.765Z,11.20
2017-12-02T15:35:44.444Z,12.37
2017-12-02T15:38:12.712Z,11.03
2017-12-02T15:40:40.220Z,11.23
2017-12-02T15:43:07.762Z,9.70
2017-12-02T15:45:35.244Z,9.40
2017-12-02T15:48:02.736Z,9.00
2017-12-02T15:50:30.249Z,10.57
2017-12-02T15:52:57.738Z,9.75
2017-12-02T15:55:25.226Z,10.60
2017-12-02T15:57:53.483Z,8.70
2017-12-02T16:00:21.363Z,9.95
2017-12-02T16:02:49.637Z,8.57
2017-12-02T16:05:17.224Z,7.73
2017-12-02T16:07:44.939Z,9.17
2017-12-02T16:10:12.682Z,10.20
2017-12-02T16:12:40.302Z,11.02
2017-12-02T16:15:07.808Z,10.23
2017-12-02T16:17:35.352Z,10.57
2017-12-02T16:20:03.197Z,10.98
2017-12-02T16:22:30.883Z,10.32
2017-12-02T16:24:58.382Z,10.43
2017-12-02T16:27:26.081Z,10.27
2017-12-02T16:29:53.588Z,8.90
2017-12-02T16:32:21.139Z,11.67
2017-12-02T16:34:49.235Z,10.27
2017-12-02T16:37:16.744Z,11.43
2017-12-02T16:39:44.241Z,10.50
2017-12-02T16:42:11.711Z,9.40
2017-12-02T16:44:39.333Z,9.77
2017-12-02T16:47:06.819Z,10.53
2017-12-02T16:49:34.332Z,9.13
2017-12-02T16:52:01.846Z,10.07
2017-12-02T16:54:29.635Z,9.93
2017-12-02T16:56:57.876Z,10.90
2017-12-02T16:59:25.365Z,9.13
2017-12-02T17:01:52.961Z,13.57
2017-12-02T17:04:20.475Z,12.17
2017-12-02T17:06:48.076Z,12.83
2017-12-02T17:09:15.596Z,11.00
2017-12-02T17:11:43.089Z,11.73
2017-12-02T17:14:11.360Z,11.93
2017-12-02T17:16:38.855Z,15.57
2017-12-02T17:19:06.472Z,12.63
2017-12-02T17:21:33.976Z,12.20
2017-12-02T17:24:01.478Z,13.07
2017-12-02T17:26:28.988Z,13.23
2017-12-02T17:28:56.466Z,12.17
2017-12-02T17:31:24.743Z,15.93
2017-12-02T17:33:52.208Z,13.20
2017-12-02T17:36:19.737Z,16.27
2017-12-02T17:38:48.104Z,15.80
2017-12-02T17:41:15.661Z,14.50
2017-12-02T17:43:43.165Z,15.63
2017-12-02T17:46:10.773Z,12.00
2017-12-02T17:48:38.265Z,12.40
2017-12-02T17:51:05.757Z,12.65
2017-12-02T17:53:33.267Z,13.27
2017-12-02T17:56:00.766Z,13.52
2017-12-02T17:58:29.931Z,13.90
2017-12-02T18:00:57.429Z,12.50
2017-12-02T18:03:25.027Z,17.45
2017-12-02T18:05:52.588Z,15.57
2017-12-02T18:08:20.096Z,13.82
2017-12-02T18:10:47.600Z,14.50
2017-12-02T18:13:15.115Z,15.32
2017-12-02T18:15:42.631Z,14.17
2017-12-02T18:18:10.113Z,15.20
2017-12-02T18:20:37.736Z,16.95
2017-12-02T18:23:05.352Z,14.83
2017-12-02T18:25:32.880Z,14.30
2017-12-02T18:28:00.492Z,14.20
2017-12-02T18:30:27.993Z,13.93
2017-12-02T18:32:55.503Z,13.60
2017-12-02T18:35:23.003Z,12.90
2017-12-02T18:37:50.506Z,14.27
2017-12-02T18:40:18.029Z,14.13
2017-12-02T18:42:45.506Z,14.85
2017-12-02T18:45:13.004Z,15.40
2017-12-02T18:47:41.293Z,15.15
2017-12-02T18:50:09.606Z,14.30
2017-12-02T18:52:37.102Z,13.40
2017-12-02T18:55:04.590Z,17.17
2017-12-02T18:57:32.849Z,15.50
2017-12-02T19:00:00.396Z,13.20
2017-12-02T19:02:27.904Z,13.55
2017-12-02T19:04:55.388Z,15.02
2017-12-02T19:07:22.929Z,15.68
2017-12-02T19:09:50.653Z,14.20
2017-12-02T19:12:19.631Z,16.50
2017-12-02T19:14:47.169Z,15.10
2017-12-02T19:17:14.649Z,14.70
2017-12-02T19:19:42.177Z,16.23
2017-12-02T19:22:09.664Z,16.00
2017-12-02T19:24:37.272Z,17.65
2017-12-02T19:27:04.765Z,16.30
2017-12-02T19:29:32.277Z,15.05
2017-12-02T19:31:59.797Z,15.60
2017-12-02T19:34:27.276Z,15.73
2017-12-02T19:36:54.797Z,16.70
2017-12-02T19:39:22.281Z,17.55
2017-12-02T19:41:49.828Z,16.23
2017-12-02T19:44:17.440Z,20.12
2017-12-02T19:46:45.744Z,19.98
2017-12-02T19:49:13.264Z,16.20
2017-12-02T19:51:41.541Z,15.65
2017-12-02T19:54:09.844Z,16.50
2017-12-02T19:56:37.344Z,17.15
2017-12-02T19:59:04.869Z,17.50
2017-12-02T20:01:32.531Z,16.45
2017-12-02T20:04:00.017Z,15.57
2017-12-02T20:06:27.536Z,15.40
2017-12-02T20:08:55.034Z,15.82
2017-12-02T20:11:22.565Z,17.27
2017-12-02T20:13:50.059Z,16.20
2017-12-02T20:16:17.690Z,15.77
2017-12-02T20:18:45.189Z,17.25
2017-12-02T20:21:12.731Z,17.33
2017-12-02T20:23:40.254Z,15.13
2017-12-02T20:26:07.758Z,14.80
2017-12-02T20:28:35.272Z,14.48
2017-12-02T20:31:02.768Z,14.40
2017-12-02T20:33:30.256Z,14.15
2017-12-02T20:35:57.814Z,14.02
2017-12-02T20:38:25.307Z,12.90
2017-12-02T20:40:52.884Z,13.45
2017-12-02T20:43:20.380Z,14.07
2017-12-02T20:45:48.015Z,14.02
2017-12-02T20:48:15.499Z,14.10
2017-12-02T20:50:42.997Z,16.02
2017-12-02T20:53:10.487Z,14.95
2017-12-02T20:55:37.983Z,13.82
2017-12-02T20:58:05.688Z,14.82
2017-12-02T21:00:33.166Z,13.57
2017-12-02T21:03:00.701Z,13.30
2017-12-02T21:05:28.363Z,15.18
2017-12-02T21:07:55.850Z,13.75
2017-12-02T21:10:23.495Z,13.23
2017-12-02T21:12:51.984Z,14.52
2017-12-02T21:15:19.508Z,14.63
2017-12-02T21:17:47.038Z,15.05
2017-12-02T21:20:14.561Z,13.88
2017-12-02T21:22:42.106Z,13.73
2017-12-02T21:25:09.609Z,12.25
2017-12-02T21:27:37.432Z,13.88
2017-12-02T21:30:04.928Z,14.73
2017-12-02T21:32:32.420Z,14.45
2017-12-02T21:34:59.958Z,14.38
2017-12-02T21:37:27.568Z,14.00
2017-12-02T21:39:55.153Z,11.35
2017-12-02T21:42:22.687Z,11.65
2017-12-02T21:44:50.153Z,13.00
2017-12-02T21:47:17.655Z,12.50
2017-12-02T21:49:45.147Z,10.93
2017-12-02T21:52:13.462Z,9.55
2017-12-02T21:54:40.936Z,14.25
2017-12-02T21:57:08.643Z,12.00
2017-12-02T21:59:36.159Z,11.95
2017-12-02T22:02:03.640Z,12.48
2017-12-02T22:04:31.340Z,11.95
2017-12-02T22:06:58.993Z,11.10
2017-12-02T22:09:26.564Z,11.75
2017-12-02T22:11:55.049Z,11.27
2017-12-02T22:14:22.745Z,11.60
2017-12-02T22:16:50.253Z,11.60
2017-12-02T22:19:18.535Z,12.95
2017-12-02T22:21:46.031Z,11.15
2017-12-02T22:24:13.548Z,10.80
2017-12-02T22:26:41.937Z,12.37
2017-12-02T22:29:09.540Z,11.60
2017-12-02T22:31:37.052Z,11.32
2017-12-02T22:34:05.426Z,11.93
2017-12-02T22:36:34.102Z,12.15
2017-12-02T22:39:01.573Z,11.82
2017-12-02T22:41:29.837Z,13.48
2017-12-02T22:43:57.441Z,12.57
2017-12-02T22:46:25.003Z,12.45
2017-12-02T22:48:53.485Z,11.82
2017-12-02T22:51:20.961Z,12.25
2017-12-02T22:53:48.568Z,14.90
2017-12-02T22:56:16.190Z,13.27
2017-12-02T22:58:43.677Z,14.30
2017-12-02T23:01:11.180Z,14.55
2017-12-02T23:03:38.664Z,15.77
2017-12-02T23:06:06.164Z,14.75
2017-12-02T23:08:33.647Z,15.50
2017-12-02T23:11:01.285Z,13.62
2017-12-02T23:13:28.776Z,13.93
2017-12-02T23:15:56.308Z,14.68
2017-12-02T23:18:23.753Z,15.25
2017-12-02T23:20:51.358Z,14.05
2017-12-02T23:23:18.831Z,14.65
2017-12-02T23:25:46.318Z,13.10
2017-12-02T23:28:13.789Z,14.52
2017-12-02T23:30:41.332Z,13.45
2017-12-02T23:33:08.768Z,13.48
2017-12-02T23:35:37.004Z,15.50
2017-12-02T23:38:05.256Z,14.27
2017-12-02T23:40:32.756Z,11.75
2017-12-02T23:43:00.316Z,15.00
2017-12-02T23:45:27.825Z,12.45
2017-12-02T23:47:55.510Z,14.23
2017-12-02T23:50:22.982Z,15.82
2017-12-02T23:52:50.499Z,15.80
2017-12-02T23:55:18.217Z,19.62
2017-12-02T23:57:45.728Z,21.15
